Time;durP1;ratioP1;P1;durP2;ratioP2;P2;SDS_P1;SDS_P2;PMS_P1;PMS_P2;Temp;Humidity;BMP_temperature;BMP_pressure;BME280_temperature;BME280_humidity;BME280_pressure;Samples;Min_cycle;Max_cycle;Signal;HPM_P1;HPM_P2
2021/05/17 00:01:20;;;;;;;1.60;1.50;;;;;;;17.83;57.15;98995.20;2292634;84;30922;-74
2021/05/17 00:04:43;;;;;;;2.05;1.60;;;;;;;17.81;57.15;98990.41;2291895;84;25711;-75
2021/05/17 00:08:14;;;;;;;1.77;1.65;;;;;;;17.77;57.19;98996.22;2223313;87;25755;-75
2021/05/17 00:11:54;;;;;;;3.65;1.70;;;;;;;17.74;57.20;98993.64;2220272;87;26180;-76
2021/05/17 00:15:30;;;;;;;2.50;2.00;;;;;;;17.77;57.19;98992.27;2264469;85;26385;-74
2021/05/17 00:18:51;;;;;;;2.72;1.62;;;;;;;17.81;57.08;98990.41;2205620;89;25644;-76
2021/05/17 00:22:13;;;;;;;4.37;1.72;;;;;;;17.79;57.03;98987.83;2203239;89;31831;-75
2021/05/17 00:26:09;;;;;;;3.00;2.12;;;;;;;17.74;57.03;98991.00;2201838;89;25667;-73
2021/05/17 00:29:31;;;;;;;6.47;1.80;;;;;;;17.66;57.14;98991.68;2199818;89;25577;-74
2021/05/17 00:32:53;;;;;;;2.77;1.80;;;;;;;17.61;57.17;98982.56;2199303;87;26337;-73
2021/05/17 00:36:18;;;;;;;3.80;1.50;;;;;;;17.56;57.19;98987.11;2199680;89;25516;-77
2021/05/17 00:39:41;;;;;;;2.62;2.05;;;;;;;17.52;57.32;98978.88;2200142;89;25780;-74
2021/05/17 00:43:14;;;;;;;1.55;1.45;;;;;;;17.49;57.33;98977.64;2255732;85;25741;-74
2021/05/17 00:46:41;;;;;;;1.98;1.55;;;;;;;17.54;57.47;98976.19;2306612;85;25579;-75
2021/05/17 00:50:20;;;;;;;1.72;1.62;;;;;;;17.60;57.27;98979.98;2303111;85;25856;-75
2021/05/17 00:53:43;;;;;;;3.37;1.67;;;;;;;17.64;57.12;98975.03;2305264;85;26266;-74
2021/05/17 00:57:06;;;;;;;4.67;1.60;;;;;;;17.63;57.08;98983.39;2306786;85;25713;-74
2021/05/17 01:00:38;;;;;;;2.08;1.82;;;;;;;17.68;56.96;98984.58;2304888;85;25689;-73
2021/05/17 01:04:15;;;;;;;2.17;1.37;;;;;;;17.68;56.95;98985.89;2317678;84;25557;-74
2021/05/17 01:08:38;;;;;;;;;;;;;;;;;;;;;
2021/05/17 01:12:06;;;;;;;1.72;1.52;;;;;;;17.66;56.81;98990.36;2212610;88;25630;-75
2021/05/17 01:15:38;;;;;;;2.60;1.67;;;;;;;17.60;56.61;98982.16;2103470;92;25645;-74
2021/05/17 01:19:46;;;;;;;4.35;1.42;;;;;;;17.68;56.60;98996.44;2043762;96;26045;-73
2021/05/17 01:26:55;;;;;;;2.55;1.92;;;;;;;17.37;56.59;98968.73;2050829;94;25714;-72
2021/05/17 01:30:27;;;;;;;2.45;1.62;;;;;;;17.39;56.80;98995.46;2050238;94;25658;-73
2021/05/17 01:33:49;;;;;;;1.67;1.35;;;;;;;17.31;56.76;98988.20;2050592;96;26214;-74
2021/05/17 01:40:50;;;;;;;2.35;2.15;;;;;;;17.13;57.06;98967.16;2016019;96;25759;-74
2021/05/17 01:44:32;;;;;;;1.62;1.37;;;;;;;17.22;56.99;98991.09;2020037;96;26333;-76
2021/05/17 01:47:55;;;;;;;1.57;1.40;;;;;;;17.15;57.10;99002.23;2105937;91;25915;-75
2021/05/17 01:51:20;;;;;;;2.45;1.67;;;;;;;17.15;57.15;99000.91;2131120;91;25253;-75
2021/05/17 01:54:48;;;;;;;2.40;2.20;;;;;;;17.00;57.32;98975.81;2130076;92;25417;-74
2021/05/17 01:58:20;;;;;;;2.17;1.73;;;;;;;17.00;57.32;98975.81;2086626;93;25672;-74
2021/05/17 02:01:44;;;;;;;2.45;1.85;;;;;;;17.13;57.12;99005.34;2112630;93;25665;-72
2021/05/17 02:05:20;;;;;;;2.58;2.12;;;;;;;17.11;57.20;99006.27;2108464;93;25681;-74
2021/05/17 02:08:55;;;;;;;2.80;1.87;;;;;;;17.17;57.14;99004.35;2075580;92;25872;-72
2021/05/17 02:12:23;;;;;;;2.37;2.17;;;;;;;17.13;57.09;99010.61;2076416;95;26225;-72
2021/05/17 02:15:48;;;;;;;2.25;2.05;;;;;;;17.10;57.04;98997.97;2081350;93;25652;-73
2021/05/17 02:19:11;;;;;;;2.72;2.52;;;;;;;16.91;57.28;98985.28;2120223;90;25776;-73
2021/05/17 02:22:37;;;;;;;2.47;2.08;;;;;;;16.93;57.30;99014.19;2129063;92;43537;-76
2021/05/17 02:26:16;;;;;;;5.10;2.00;;;;;;;16.93;57.30;99014.19;2218900;87;25657;-75
2021/05/17 02:29:39;;;;;;;2.25;1.87;;;;;;;16.89;57.37;99019.11;2196375;90;25611;-74
2021/05/17 02:33:01;;;;;;;3.00;2.08;;;;;;;16.79;57.43;99021.09;2262931;87;25544;-77
2021/05/17 02:36:24;;;;;;;2.55;2.17;;;;;;;16.79;57.43;99021.09;2262155;87;25548;-74
2021/05/17 02:39:46;;;;;;;1.80;1.67;;;;;;;16.84;57.63;99023.60;2261680;87;25752;-76
2021/05/17 02:43:11;;;;;;;2.90;2.15;;;;;;;16.76;57.69;99019.84;2263526;87;25629;-76
2021/05/17 02:47:11;;;;;;;3.08;2.83;;;;;;;16.73;57.75;99022.52;2257930;87;25637;-76
2021/05/17 02:50:55;;;;;;;4.65;2.27;;;;;;;16.59;57.68;99004.41;2191756;90;25615;-75
2021/05/17 02:54:41;;;;;;;2.37;2.17;;;;;;;16.59;57.68;99004.41;2191917;90;25548;-74
2021/05/17 02:58:18;;;;;;;2.02;1.82;;;;;;;16.71;57.82;99020.39;2129598;90;25676;-74
2021/05/17 03:01:50;;;;;;;2.00;1.77;;;;;;;16.64;57.91;99026.69;2084597;93;25696;-74
2021/05/17 03:05:29;;;;;;;2.75;2.40;;;;;;;16.60;58.02;99027.64;2027600;97;25736;-75
2021/05/17 03:09:07;;;;;;;4.53;2.33;;;;;;;16.59;58.05;99024.59;1992241;98;25752;-72
2021/05/17 03:12:48;;;;;;;2.72;2.27;;;;;;;16.56;58.16;99024.66;1979257;98;25855;-74
2021/05/17 03:16:16;;;;;;;4.30;2.50;;;;;;;16.51;58.05;99028.27;1969755;98;26308;-73
2021/05/17 03:19:38;;;;;;;2.45;2.25;;;;;;;16.51;58.05;99028.27;1941928;101;25588;-73
2021/05/17 03:23:00;;;;;;;2.62;2.37;;;;;;;16.59;58.22;99030.72;1942083;101;25846;-73
2021/05/17 03:26:24;;;;;;;3.10;2.20;;;;;;;16.65;58.20;99036.30;1963610;98;25820;-73
2021/05/17 03:30:12;;;;;;;5.25;2.33;;;;;;;16.71;58.15;99037.48;1992211;97;26363;-73
2021/05/17 03:33:36;;;;;;;2.87;2.55;;;;;;;16.93;57.79;99036.55;2020604;97;25665;-73
2021/05/17 03:37:06;;;;;;;3.33;2.47;;;;;;;16.91;57.60;99039.69;2018614;97;25615;-74
2021/05/17 03:40:27;;;;;;;2.67;2.47;;;;;;;16.91;57.60;99039.69;2016821;97;25680;-74
2021/05/17 03:43:48;;;;;;;3.02;2.45;;;;;;;16.99;57.84;99035.96;2082026;93;25405;-74
2021/05/17 03:47:08;;;;;;;6.30;2.90;;;;;;;16.99;57.84;99035.96;2144175;92;31266;-75
2021/05/17 03:50:30;;;;;;;4.72;3.00;;;;;;;17.03;57.57;99036.75;2150642;90;30956;-74
2021/05/17 03:53:51;;;;;;;4.37;3.27;;;;;;;16.98;57.58;99034.23;2148348;92;25717;-74
2021/05/17 03:57:21;;;;;;;5.15;2.92;;;;;;;16.93;57.70;99032.15;2185140;86;25358;-74
2021/05/17 04:00:57;;;;;;;3.08;2.77;;;;;;;16.79;57.79;99018.46;2282375;86;25540;-75
2021/05/17 04:04:21;;;;;;;2.83;2.58;;;;;;;16.91;57.95;99044.50;2291139;86;26241;-74
2021/05/17 04:14:51;;;;;;;4.40;3.40;;;;;;;17.14;57.98;99042.61;2317473;84;25578;-73
2021/05/17 04:18:30;;;;;;;3.30;3.00;;;;;;;17.14;57.98;99042.61;2326372;84;30699;-74
2021/05/17 04:21:46;;;;;;;3.60;3.15;;;;;;;17.17;57.79;99042.53;2323960;84;25651;-73
2021/05/17 04:25:09;;;;;;;5.40;4.15;;;;;;;17.20;57.82;99038.97;2367298;83;30844;-75
2021/05/17 04:28:32;;;;;;;4.35;3.12;;;;;;;17.24;57.68;99047.20;2382195;81;25713;-74
2021/05/17 04:32:05;;;;;;;6.47;3.60;;;;;;;17.24;57.72;99043.25;2387928;82;25747;-74
2021/05/17 04:35:26;;;;;;;3.10;2.80;;;;;;;17.24;57.79;99049.84;2388479;82;25793;-74
2021/05/17 04:38:48;;;;;;;4.47;3.15;;;;;;;17.22;57.89;99049.89;2393100;82;25995;-74
2021/05/17 04:42:09;;;;;;;3.62;3.27;;;;;;;17.25;58.04;99047.64;2391153;82;25434;-73
2021/05/17 04:45:33;;;;;;;3.85;3.52;;;;;;;17.30;58.07;99043.11;2393344;81;30918;-74
2021/05/17 04:48:56;;;;;;;5.70;3.85;;;;;;;17.41;57.97;99054.25;2393131;82;25123;-74
2021/05/17 04:52:16;;;;;;;5.62;3.15;;;;;;;17.46;57.92;99059.39;2396182;82;30783;-73
2021/05/17 04:55:37;;;;;;;6.78;3.12;;;;;;;17.52;57.89;99059.70;2395544;82;30719;-74
2021/05/17 04:59:03;;;;;;;7.65;3.60;;;;;;;17.54;57.83;99062.69;2358636;82;30765;-73
2021/05/17 05:02:32;;;;;;;5.10;3.15;;;;;;;17.58;57.89;99063.05;2392958;81;25636;-73
2021/05/17 05:06:02;;;;;;;7.30;2.95;;;;;;;17.61;57.95;99058.13;2394245;81;25447;-73
2021/05/17 05:09:24;;;;;;;3.47;3.05;;;;;;;17.67;57.88;99063.23;2396767;82;25532;-74
2021/05/17 05:12:45;;;;;;;5.25;3.37;;;;;;;17.71;57.88;99059.61;2396788;81;25470;-73
2021/05/17 05:16:06;;;;;;;4.28;3.30;;;;;;;17.80;57.91;99063.36;2397249;82;31210;-72
2021/05/17 05:19:32;;;;;;;4.10;3.70;;;;;;;17.90;57.87;99054.30;2396424;81;25536;-74
2021/05/17 05:22:54;;;;;;;8.30;3.58;;;;;;;17.98;57.86;99058.03;2396780;81;31392;-73
2021/05/17 05:33:11;;;;;;;5.08;3.35;;;;;;;18.22;58.13;99047.23;2327904;82;25537;-74
2021/05/17 05:36:31;;;;;;;3.83;3.52;;;;;;;18.35;58.08;99059.62;2396749;81;25520;-73
2021/05/17 05:39:52;;;;;;;3.22;2.98;;;;;;;18.47;57.94;99059.73;2396978;82;31255;-76
2021/05/17 05:43:13;;;;;;;4.03;3.60;;;;;;;18.52;57.85;99065.72;2396756;81;31181;-75
2021/05/17 05:46:36;;;;;;;3.55;3.20;;;;;;;18.53;57.80;99063.52;2396345;82;25724;-72
2021/05/17 05:49:57;;;;;;;6.00;3.70;;;;;;;18.59;57.86;99048.79;2397048;81;25437;-73
2021/05/17 05:53:21;;;;;;;5.78;3.20;;;;;;;18.68;57.69;99052.48;2395722;81;25581;-72
2021/05/17 05:56:42;;;;;;;5.37;3.72;;;;;;;18.78;57.61;99048.67;2395626;81;25659;-73
2021/05/17 06:00:22;;;;;;;8.80;3.92;;;;;;;18.89;57.44;99037.77;2396683;82;25450;-76
2021/05/17 06:03:43;;;;;;;4.55;3.37;;;;;;;19.01;57.25;99038.71;2396174;82;26222;-73
2021/05/17 06:07:05;;;;;;;5.62;3.83;;;;;;;19.16;56.88;99043.08;2396760;81;25840;-73
2021/05/17 06:10:26;;;;;;;8.55;4.22;;;;;;;19.31;56.57;99046.55;2396145;81;31447;-73
2021/05/17 06:13:50;;;;;;;4.28;3.90;;;;;;;19.47;56.34;99037.20;2391337;82;25556;-74
2021/05/17 06:17:15;;;;;;;6.15;4.10;;;;;;;19.58;56.12;99045.61;2392919;82;25596;-73
2021/05/17 06:20:37;;;;;;;4.72;4.33;;;;;;;19.75;56.17;99046.84;2397084;82;25579;-73
2021/05/17 06:24:05;;;;;;;4.62;4.12;;;;;;;20.01;56.28;99052.07;2392493;82;25861;-73
2021/05/17 06:27:27;;;;;;;4.60;4.20;;;;;;;20.34;56.14;99042.45;2390561;81;25478;-75
2021/05/17 06:30:51;;;;;;;6.20;4.03;;;;;;;20.69;55.84;99040.30;2389284;82;26236;-73
2021/05/17 06:34:12;;;;;;;5.30;4.37;;;;;;;21.07;55.65;99043.20;2389260;82;25471;-74
2021/05/17 06:37:33;;;;;;;4.42;4.03;;;;;;;21.50;55.31;99048.05;2386701;82;25431;-76
2021/05/17 06:40:57;;;;;;;5.28;4.17;;;;;;;21.94;54.98;99046.16;2369408;82;25547;-75
2021/05/17 06:44:23;;;;;;;13.30;4.17;;;;;;;22.39;54.41;99037.92;2357040;84;25563;-76
2021/05/17 06:47:45;;;;;;;5.75;3.95;;;;;;;22.83;53.79;99054.05;2356048;82;25511;-76
2021/05/17 06:51:21;;;;;;;7.20;4.40;;;;;;;23.33;53.23;99045.43;2354968;82;26035;-75
2021/05/17 06:54:45;;;;;;;4.35;3.95;;;;;;;23.85;52.83;99041.45;2384943;82;25552;-75
2021/05/17 06:58:23;;;;;;;5.67;4.35;;;;;;;24.43;52.10;99044.16;2378610;82;25518;-77
2021/05/17 07:01:41;;;;;;;5.20;4.75;;;;;;;24.97;51.46;99044.25;2354014;84;25395;-79
2021/05/17 07:05:15;;;;;;;5.22;4.00;;;;;;;25.59;50.66;99049.57;2353396;84;25166;-79
2021/05/17 07:12:29;;;;;;;7.22;4.15;;;;;;;26.80;48.63;99055.50;2194611;88;25631;-81
2021/05/17 07:15:50;;;;;;;4.87;4.10;;;;;;;27.50;47.71;99045.98;2192199;89;25879;-74
2021/05/17 07:19:11;;;;;;;8.13;3.95;;;;;;;28.20;46.96;99047.00;2190099;88;25247;-80
2021/05/17 07:26:19;;;;;;;5.70;4.00;;;;;;;29.59;44.87;99053.45;2182278;88;25629;-75
2021/05/17 07:29:40;;;;;;;8.78;4.95;;;;;;;30.35;43.49;99053.38;2210212;88;25896;-77
2021/05/17 07:33:04;;;;;;;4.17;3.67;;;;;;;31.03;42.37;99054.19;2208787;88;25406;-79
2021/05/17 07:36:25;;;;;;;4.60;4.15;;;;;;;31.71;41.45;99053.45;2160397;90;25841;-82
2021/05/17 07:39:47;;;;;;;8.68;3.62;;;;;;;32.29;40.36;99059.73;2159490;90;25654;-77
2021/05/17 07:43:10;;;;;;;7.05;3.60;;;;;;;32.76;39.55;99057.89;2160937;90;25566;-76
2021/05/17 07:46:31;;;;;;;6.95;3.60;;;;;;;33.35;38.63;99059.25;2172676;89;25608;-79
2021/05/17 07:50:03;;;;;;;9.08;4.03;;;;;;;33.91;37.48;99061.72;2190910;89;25564;-77
2021/05/17 07:53:31;;;;;;;7.25;3.70;;;;;;;34.45;36.55;99059.31;2166736;90;25503;-76
2021/05/17 07:56:52;;;;;;;4.08;3.72;;;;;;;34.82;35.85;99054.41;2155759;89;26050;-76
2021/05/17 08:03:59;;;;;;;4.47;3.40;;;;;;;35.52;34.61;99066.38;2108008;90;25619;-84
2021/05/17 08:07:33;;;;;;;6.83;3.30;;;;;;;36.02;34.07;99074.45;2186899;90;25967;-79
2021/05/17 08:11:00;;;;;;;3.35;3.05;;;;;;;36.46;33.30;99077.94;2189300;90;25657;-85
2021/05/17 08:14:36;;;;;;;3.50;3.00;;;;;;;36.77;32.69;99072.84;2165498;90;25819;-84
2021/05/17 08:18:03;;;;;;;2.67;2.47;;;;;;;37.06;32.42;99085.22;2135645;91;25768;-81
2021/05/17 08:21:41;;;;;;;4.05;2.40;;;;;;;37.37;32.10;99080.02;2153420;91;25675;-79
2021/05/17 08:25:14;;;;;;;2.35;2.10;;;;;;;37.56;31.31;99070.70;2157479;90;25982;-81
2021/05/17 08:28:45;;;;;;;6.65;2.17;;;;;;;37.75;30.67;99073.61;2164739;90;25444;-79
2021/05/17 08:32:10;;;;;;;3.65;3.10;;;;;;;37.86;30.18;99065.09;2157856;90;26121;-82
2021/05/17 08:39:35;;;;;;;4.03;2.85;;;;;;;34.17;25.91;99059.78;2121829;90;25635;-78
2021/05/17 08:43:27;;;;;;;9.63;3.27;;;;;;;32.26;25.19;99044.31;2188102;90;25610;-79
2021/05/17 08:46:53;;;;;;;3.27;2.40;;;;;;;30.51;26.96;99038.23;2155808;91;25610;-79
2021/05/17 08:50:28;;;;;;;4.05;3.30;;;;;;;30.23;29.13;99038.22;2156102;91;25537;-82
2021/05/17 08:57:53;;;;;;;4.08;3.80;;;;;;;31.14;27.80;99041.67;2134606;90;25645;-79
2021/05/17 09:01:38;;;;;;;;;;;;;;;;;;;;;
2021/05/17 09:05:39;;;;;;;;;;;;;;;;;;;;;
2021/05/17 09:08:59;;;;;;;5.10;2.52;;;;;;;30.46;27.74;99029.66;2137217;92;25822;-78
2021/05/17 09:12:43;;;;;;;1.85;1.70;;;;;;;30.35;26.97;99033.71;2227321;88;25683;-82
2021/05/17 09:16:32;;;;;;;1.75;1.65;;;;;;;29.95;27.93;99040.85;2212874;88;25501;-84
2021/05/17 09:20:49;;;;;;;6.10;3.45;;;;;;;30.09;28.21;99033.05;2226418;88;25634;-81
2021/05/17 09:24:14;;;;;;;7.35;2.08;;;;;;;29.74;27.26;99011.63;2222187;88;25874;-85
2021/05/17 09:27:48;;;;;;;2.25;2.02;;;;;;;29.02;28.57;98992.41;2224375;86;25611;-86
2021/05/17 09:31:34;;;;;;;1.95;1.70;;;;;;;29.56;28.58;99010.67;2218044;88;25647;-80
2021/05/17 09:35:17;;;;;;;;;;;;;;;29.78;29.27;99010.41;2229628;88;25691;-85
2021/05/17 09:39:12;;;;;;;4.12;1.77;;;;;;;30.26;28.14;98990.08;2205670;87;25903;-86
2021/05/17 09:42:50;;;;;;;3.12;1.70;;;;;;;30.91;28.53;99001.36;2238160;86;25649;-82
2021/05/17 09:46:13;;;;;;;6.75;2.08;;;;;;;31.31;27.17;99000.73;2266485;86;25952;-83
2021/05/17 09:49:48;;;;;;;;;;;;;;;31.33;26.91;98998.81;2251952;86;25768;-88
2021/05/17 09:53:41;;;;;;;9.98;2.05;;;;;;;31.62;27.13;98997.66;2223098;87;26122;-85
2021/05/17 10:01:50;;;;;;;14.60;1.62;;;;;;;30.39;25.62;99003.41;2178406;89;25924;-91
2021/05/17 10:06:10;;;;;;;3.02;1.42;;;;;;;30.38;26.20;98992.28;2221115;87;25850;-86
2021/05/17 10:09:34;;;;;;;9.00;1.45;;;;;;;30.67;25.42;98996.63;2241433;87;25825;-87
2021/05/17 10:13:10;;;;;;;1.87;1.30;;;;;;;29.67;26.02;98992.91;2226383;87;25627;-85
2021/05/17 10:16:39;;;;;;;1.60;1.30;;;;;;;29.41;27.26;98985.87;2223112;87;25663;-88
2021/05/17 10:20:23;;;;;;;13.40;1.45;;;;;;;29.83;26.99;98975.97;2218322;87;25742;-85
2021/05/17 10:24:04;;;;;;;1.82;1.02;;;;;;;30.18;26.91;98984.44;2228732;86;25573;-90
2021/05/17 10:28:15;;;;;;;5.92;1.90;;;;;;;30.09;26.49;98984.18;2242098;86;32488;-89
2021/05/17 10:32:09;;;;;;;1.65;1.10;;;;;;;29.60;26.60;98985.84;2272134;85;25690;-87
2021/05/17 10:35:57;;;;;;;3.65;1.50;;;;;;;28.78;26.63;98973.61;2252747;86;25537;-90
2021/05/17 10:39:43;;;;;;;4.30;1.40;;;;;;;28.24;27.41;98976.14;2226532;88;26033;-91
2021/05/17 10:46:58;;;;;;;1.47;0.80;;;;;;;28.55;28.94;98963.72;2251326;86;25738;-87
2021/05/17 10:50:32;;;;;;;2.98;1.10;;;;;;;28.18;28.18;98952.95;2249234;85;25646;-85
2021/05/17 10:54:36;;;;;;;7.12;1.17;;;;;;;28.56;29.23;98947.53;2234664;86;25671;-85
2021/05/17 11:00:22;;;;;;;2.37;0.98;;;;;;;28.91;28.95;98940.87;2324013;83;25436;-89
2021/05/17 11:02:11;;;;;;;2.58;1.20;;;;;;;29.49;29.17;98950.37;2328596;83;25811;-87
2021/05/17 11:05:53;;;;;;;1.30;1.20;;;;;;;29.11;27.72;98950.63;2341607;83;26075;-86
2021/05/17 11:09:36;;;;;;;2.22;1.32;;;;;;;28.43;27.17;98958.29;2362345;82;25613;-87
2021/05/17 11:13:50;;;;;;;4.50;1.50;;;;;;;28.11;28.51;98953.87;2229185;87;26170;-88
2021/05/17 11:17:11;;;;;;;1.70;1.10;;;;;;;28.45;28.68;98956.37;2227776;87;25826;-90
2021/05/17 11:21:20;;;;;;;1.85;0.90;;;;;;;28.40;27.81;98950.95;2206893;86;26271;-90
2021/05/17 11:25:03;;;;;;;3.50;1.10;;;;;;;28.15;28.42;98951.86;2197554;88;25760;-87
2021/05/17 11:28:59;;;;;;;14.28;2.30;;;;;;;28.49;29.23;98950.30;2200683;87;25551;-86
2021/05/17 11:32:39;;;;;;;2.25;1.32;;;;;;;28.50;29.09;98952.00;2202727;89;32311;-82
2021/05/17 11:36:32;;;;;;;1.87;0.90;;;;;;;28.05;29.33;98935.58;2198873;89;25504;-90
2021/05/17 11:39:53;;;;;;;3.67;1.22;;;;;;;27.99;29.64;98936.86;2064369;92;25734;-86
2021/05/17 11:43:14;;;;;;;2.52;1.22;;;;;;;28.05;28.89;98938.75;2058716;94;26000;-85
2021/05/17 11:46:44;;;;;;;6.22;1.22;;;;;;;27.85;29.30;98930.30;2061505;95;25689;-83
2021/05/17 11:50:17;;;;;;;4.80;1.25;;;;;;;27.70;28.75;98931.33;2081953;93;25683;-84
2021/05/17 11:53:57;;;;;;;1.02;0.93;;;;;;;27.22;29.28;98935.95;2098372;92;25504;-83
2021/05/17 11:57:25;;;;;;;2.75;1.30;;;;;;;26.44;28.81;98934.40;2114480;92;25637;-84
2021/05/17 12:00:49;;;;;;;3.58;1.45;;;;;;;25.77;29.98;98938.16;2099277;90;26076;-87
2021/05/17 12:05:00;;;;;;;;;;;;;;;;;;;;;
2021/05/17 12:08:19;;;;;;;2.75;0.82;;;;;;;24.91;30.76;98931.78;2099012;92;25744;-86
2021/05/17 12:12:30;;;;;;;2.08;0.88;;;;;;;24.66;31.23;98922.99;2116227;88;26057;-83
2021/05/17 12:15:59;;;;;;;2.65;1.10;;;;;;;24.69;31.28;98921.01;2213080;87;25593;-87
2021/05/17 12:20:15;;;;;;;2.85;1.30;;;;;;;24.44;31.50;98925.56;2231096;87;25715;-85
2021/05/17 12:23:51;;;;;;;1.22;1.00;;;;;;;24.21;31.97;98937.46;2250002;84;25661;-86
2021/05/17 12:27:26;;;;;;;3.75;1.02;;;;;;;24.22;32.69;98930.33;2255872;84;25594;-83
2021/05/17 12:30:47;;;;;;;5.80;1.00;;;;;;;24.03;32.23;98936.68;2131592;88;25730;-83
2021/05/17 12:34:23;;;;;;;2.12;1.15;;;;;;;23.51;32.97;98939.42;2195515;88;25603;-83
2021/05/17 12:37:55;;;;;;;1.35;1.05;;;;;;;23.18;33.40;98934.05;2238298;86;25636;-83
2021/05/17 12:42:04;;;;;;;1.72;0.90;;;;;;;22.85;33.85;98934.80;2238396;85;25545;-83
2021/05/17 12:45:19;;;;;;;1.20;1.10;;;;;;;22.54;34.32;98931.44;2247972;85;25558;-83
2021/05/17 12:57:13;;;;;;;4.03;0.90;;;;;;;22.42;34.16;98924.08;2210887;87;25979;-88
2021/05/17 13:01:02;;;;;;;1.62;0.93;;;;;;;22.55;34.37;98920.37;2126056;91;25591;-88
2021/05/17 13:04:36;;;;;;;2.30;1.22;;;;;;;22.68;34.25;98917.51;2119005;91;25683;-92
2021/05/17 13:08:14;;;;;;;5.10;1.00;;;;;;;22.60;34.29;98923.17;2122941;92;25670;-87
2021/05/17 13:12:03;;;;;;;4.30;0.88;;;;;;;22.83;34.24;98919.39;2122104;92;25702;-87
2021/05/17 13:16:28;;;;;;;1.77;0.75;;;;;;;22.82;34.21;98915.49;2119290;91;26112;-86
2021/05/17 13:20:03;;;;;;;2.87;0.98;;;;;;;22.70;34.04;98913.43;2075902;89;34716;-85
2021/05/17 13:24:14;;;;;;;2.27;1.30;;;;;;;22.86;34.34;98907.28;2102948;91;26011;-87
2021/05/17 13:31:19;;;;;;;2.00;0.72;;;;;;;23.25;34.05;98903.58;2152294;90;25647;-86
2021/05/17 13:34:45;;;;;;;4.10;1.00;;;;;;;23.39;33.89;98900.19;2203461;84;25647;-87
2021/05/17 13:38:06;;;;;;;7.60;1.57;;;;;;;23.54;33.71;98899.36;2220261;87;25793;-88
2021/05/17 13:41:42;;;;;;;5.85;1.12;;;;;;;23.45;33.51;98893.66;2166498;89;25499;-83
2021/05/17 13:45:30;;;;;;;;;;;;;;;;;;;;;
2021/05/17 13:48:51;;;;;;;3.45;0.80;;;;;;;23.32;33.73;98893.00;2167598;87;25587;-83
2021/05/17 13:52:18;;;;;;;2.90;0.93;;;;;;;23.08;33.92;98892.48;2360628;82;25502;-86
2021/05/17 13:55:45;;;;;;;2.83;1.30;;;;;;;23.13;35.12;98888.25;2385593;82;25609;-82
2021/05/17 13:59:09;;;;;;;5.60;1.17;;;;;;;23.25;34.38;98890.28;2353495;82;25431;-84
2021/05/17 14:02:36;;;;;;;1.40;0.80;;;;;;;23.42;34.66;98884.52;2353268;81;25802;-88
2021/05/17 14:06:25;;;;;;;1.45;0.80;;;;;;;23.57;36.50;98878.40;2389704;81;30792;-87
2021/05/17 14:10:00;;;;;;;3.75;0.80;;;;;;;23.83;36.12;98882.80;2393601;81;25975;-87
2021/05/17 14:16:59;;;;;;;6.40;1.00;;;;;;;24.51;36.38;98886.11;2334904;81;25996;-89
2021/05/17 14:20:26;;;;;;;6.50;0.93;;;;;;;24.61;34.50;98879.30;2279749;85;25602;-88
2021/05/17 14:23:51;;;;;;;3.25;1.00;;;;;;;24.55;35.32;98875.66;2296133;83;25463;-87
2021/05/17 14:27:12;;;;;;;1.80;0.90;;;;;;;24.49;34.26;98875.53;2309299;83;26101;-88
2021/05/17 14:30:52;;;;;;;2.05;0.90;;;;;;;24.23;33.96;98865.47;2317920;83;25746;-88
2021/05/17 14:34:16;;;;;;;2.25;0.93;;;;;;;24.28;34.95;98862.08;2346339;83;25938;-89
2021/05/17 14:37:42;;;;;;;5.58;1.57;;;;;;;24.50;35.15;98869.27;2313022;83;25756;-85
2021/05/17 14:41:19;;;;;;;1.98;1.00;;;;;;;24.76;35.12;98865.55;2354490;83;25414;-89
2021/05/17 14:44:50;;;;;;;4.75;2.10;;;;;;;24.85;35.65;98870.34;2349632;83;25491;-88
2021/05/17 14:48:34;;;;;;;2.83;1.70;;;;;;;24.79;34.71;98870.70;2303138;84;25594;-89
2021/05/17 14:52:26;;;;;;;;;;;;;;;;;;;;;
2021/05/17 14:55:37;;;;;;;3.20;1.47;;;;;;;24.69;33.63;98869.52;2333303;82;25590;-86
2021/05/17 14:59:33;;;;;;;5.72;2.22;;;;;;;24.73;33.56;98868.39;2352385;82;25722;-83
2021/05/17 15:02:54;;;;;;;2.95;0.85;;;;;;;24.74;32.99;98874.13;2354236;83;25229;-85
2021/05/17 15:06:19;;;;;;;4.78;0.80;;;;;;;24.77;34.28;98873.06;2353846;82;25232;-84
2021/05/17 15:09:59;;;;;;;6.83;0.90;;;;;;;24.74;34.06;98874.13;2220571;88;25696;-81
2021/05/17 15:13:22;;;;;;;1.90;1.10;;;;;;;24.77;34.27;98879.25;2227471;88;25360;-83
2021/05/17 15:16:43;;;;;;;1.40;0.82;;;;;;;24.81;34.95;98876.81;2234001;88;26479;-86
2021/05/17 15:20:13;;;;;;;1.77;1.10;;;;;;;24.85;34.99;98877.01;2229941;88;25899;-82
2021/05/17 15:23:36;;;;;;;2.98;1.20;;;;;;;24.89;34.92;98877.69;2229229;86;25385;-83
2021/05/17 15:26:57;;;;;;;6.87;1.40;;;;;;;24.88;35.57;98877.31;2196699;88;25532;-85
2021/05/17 15:30:39;;;;;;;5.33;1.22;;;;;;;24.85;35.54;98868.16;2217998;87;25920;-84
2021/05/17 15:37:31;;;;;;;3.23;1.10;;;;;;;24.79;35.74;98865.37;2160687;90;26177;-86
2021/05/17 15:41:13;;;;;;;4.87;1.45;;;;;;;24.74;35.19;98866.13;2202449;88;26004;-88
2021/05/17 15:44:51;;;;;;;4.50;1.30;;;;;;;24.66;35.27;98861.70;2082192;92;25930;-83
2021/05/17 15:48:18;;;;;;;5.70;1.22;;;;;;;24.57;35.45;98851.13;2053597;94;26138;-85
2021/05/17 15:51:52;;;;;;;2.80;1.17;;;;;;;24.54;35.13;98860.63;2057740;96;25646;-84
2021/05/17 15:55:18;;;;;;;1.98;1.17;;;;;;;24.45;35.89;98850.50;2084395;92;25599;-87
2021/05/17 15:58:45;;;;;;;2.77;1.32;;;;;;;24.47;35.76;98858.80;2086954;94;25322;-85
2021/05/17 16:02:18;;;;;;;5.78;1.52;;;;;;;24.46;35.19;98854.87;2108426;91;25572;-81
2021/05/17 16:05:55;;;;;;;3.75;1.40;;;;;;;24.45;35.80;98847.84;2097167;89;25616;-83
2021/05/17 16:09:16;;;;;;;1.72;1.25;;;;;;;24.41;35.63;98852.48;2108144;93;26132;-86
2021/05/17 16:23:38;;;;;;;4.45;1.75;;;;;;;24.23;35.57;98856.14;2045650;94;25572;-83
2021/05/17 16:27:19;;;;;;;6.20;1.10;;;;;;;24.23;35.84;98858.36;2045377;96;25817;-87
2021/05/17 16:30:48;;;;;;;3.17;0.93;;;;;;;24.24;35.76;98858.73;1982604;96;25697;-88
2021/05/17 16:34:12;;;;;;;2.90;1.50;;;;;;;24.22;35.99;98852.63;1984030;98;25739;-87
2021/05/17 16:37:36;;;;;;;5.75;1.30;;;;;;;24.25;35.77;98850.27;1970407;98;25654;-86
2021/05/17 16:41:00;;;;;;;5.08;1.20;;;;;;;24.27;35.59;98850.58;2016494;95;26171;-87
2021/05/17 16:44:23;;;;;;;4.47;1.40;;;;;;;24.23;35.49;98849.05;2063692;94;25690;-84
2021/05/17 16:48:02;;;;;;;1.52;1.10;;;;;;;24.13;35.67;98854.95;2065909;94;26082;-83
2021/05/17 16:52:09;;;;;;;2.02;0.98;;;;;;;24.06;35.90;98852.25;2067904;94;25607;-87
2021/05/17 16:55:32;;;;;;;4.55;1.37;;;;;;;23.98;35.85;98851.36;2141479;90;26194;-85
2021/05/17 16:58:57;;;;;;;2.65;1.50;;;;;;;23.89;36.11;98850.05;2141226;90;25262;-84
2021/05/17 17:02:18;;;;;;;3.95;1.60;;;;;;;23.78;36.51;98851.13;2170741;89;25579;-83
2021/05/17 17:05:43;;;;;;;4.50;1.27;;;;;;;23.78;36.59;98859.11;2174464;88;25585;-81
2021/05/17 17:09:08;;;;;;;10.08;1.30;;;;;;;23.70;36.50;98863.52;2249152;87;25323;-84
2021/05/17 17:12:38;;;;;;;4.65;1.40;;;;;;;23.53;36.63;98851.11;2247448;86;25972;-83
2021/05/17 17:16:01;;;;;;;5.05;1.60;;;;;;;23.41;36.86;98857.07;2251937;85;25719;-84
2021/05/17 17:19:25;;;;;;;3.87;1.75;;;;;;;23.25;36.92;98855.72;2314467;83;25640;-84
2021/05/17 17:22:46;;;;;;;4.55;2.37;;;;;;;23.13;37.20;98860.81;2344172;84;25807;-86
2021/05/17 17:26:26;;;;;;;8.13;1.65;;;;;;;23.08;37.61;98861.03;2328780;84;25637;-81
2021/05/17 17:29:46;;;;;;;;;;;;;;;23.05;37.50;98857.20;2329435;84;25231;-85
2021/05/17 17:33:11;;;;;;;6.20;1.92;;;;;;;23.03;37.74;98857.29;2331869;84;25485;-83
2021/05/17 17:36:39;;;;;;;4.40;1.52;;;;;;;22.98;37.82;98854.47;2331029;84;26350;-83
2021/05/17 17:40:01;;;;;;;2.42;1.52;;;;;;;22.89;38.00;98855.78;2279511;86;25555;-81
2021/05/17 17:43:27;;;;;;;4.92;1.27;;;;;;;22.86;38.20;98855.47;2224672;87;26000;-85
2021/05/17 17:46:59;;;;;;;5.90;1.65;;;;;;;22.84;38.35;98857.33;2230827;87;25554;-80
2021/05/17 17:50:28;;;;;;;2.27;1.82;;;;;;;22.70;38.93;98860.30;2241926;87;25646;-84
2021/05/17 17:53:54;;;;;;;6.22;1.67;;;;;;;22.59;39.58;98856.86;2247966;87;26017;-82
2021/05/17 17:57:21;;;;;;;8.33;2.05;;;;;;;22.42;40.57;98860.83;2210107;89;25603;-82
2021/05/17 18:01:01;;;;;;;4.45;1.42;;;;;;;22.29;41.45;98861.41;2212203;89;26119;-83
2021/05/17 18:04:25;;;;;;;4.58;1.30;;;;;;;22.15;41.75;98855.92;2210497;89;25815;-84
2021/05/17 18:07:46;;;;;;;2.08;1.20;;;;;;;22.00;42.10;98858.78;2212679;89;25698;-78